sensor_id;sensor_type;location;lat;lon;timestamp;P1;durP1;ratioP1;P2;durP2;ratioP2
9276;SDS011;4676;42.678;23.244;2023-04-01T00:01:05;4.73;;;1.57;;
9276;SDS011;4676;42.678;23.244;2023-04-01T00:03:32;4.10;;;2.17;;
9276;SDS011;4676;42.678;23.244;2023-04-01T00:05:59;5.93;;;1.77;;
9276;SDS011;4676;42.678;23.244;2023-04-01T00:08:27;7.40;;;1.90;;
9276;SDS011;4676;42.678;23.244;2023-04-01T00:10:56;1.67;;;1.33;;
9276;SDS011;4676;42.678;23.244;2023-04-01T00:13:23;14.27;;;1.80;;
9276;SDS011;4676;42.678;23.244;2023-04-01T00:15:50;4.73;;;2.07;;
9276;SDS011;4676;42.678;23.244;2023-04-01T00:18:17;2.53;;;1.30;;
9276;SDS011;4676;42.678;23.244;2023-04-01T00:20:44;3.80;;;1.20;;
9276;SDS011;4676;42.678;23.244;2023-04-01T00:23:11;5.07;;;2.03;;
9276;SDS011;4676;42.678;23.244;2023-04-01T00:25:38;4.00;;;1.53;;
9276;SDS011;4676;42.678;23.244;2023-04-01T00:28:06;1.97;;;1.63;;
9276;SDS011;4676;42.678;23.244;2023-04-01T00:30:33;1.57;;;1.40;;
9276;SDS011;4676;42.678;23.244;2023-04-01T00:33:01;15.60;;;6.43;;
9276;SDS011;4676;42.678;23.244;2023-04-01T00:35:28;19.63;;;10.00;;
9276;SDS011;4676;42.678;23.244;2023-04-01T00:37:55;16.07;;;10.87;;
9276;SDS011;4676;42.678;23.244;2023-04-01T00:40:23;22.40;;;11.47;;
9276;SDS011;4676;42.678;23.244;2023-04-01T00:42:53;18.07;;;11.10;;
9276;SDS011;4676;42.678;23.244;2023-04-01T00:45:27;25.33;;;14.53;;
9276;SDS011;4676;42.678;23.244;2023-04-01T00:48:02;25.20;;;13.43;;
9276;SDS011;4676;42.678;23.244;2023-04-01T00:50:32;21.40;;;13.50;;
9276;SDS011;4676;42.678;23.244;2023-04-01T00:53:00;24.33;;;12.57;;
9276;SDS011;4676;42.678;23.244;2023-04-01T00:55:28;25.27;;;13.40;;
9276;SDS011;4676;42.678;23.244;2023-04-01T00:57:58;24.00;;;12.70;;
9276;SDS011;4676;42.678;23.244;2023-04-01T01:00:29;22.73;;;11.90;;
9276;SDS011;4676;42.678;23.244;2023-04-01T01:02:56;20.63;;;12.77;;
9276;SDS011;4676;42.678;23.244;2023-04-01T01:05:23;18.13;;;12.47;;
9276;SDS011;4676;42.678;23.244;2023-04-01T01:08:01;31.97;;;12.77;;
9276;SDS011;4676;42.678;23.244;2023-04-01T01:10:38;27.97;;;13.40;;
9276;SDS011;4676;42.678;23.244;2023-04-01T01:13:08;17.30;;;12.50;;
9276;SDS011;4676;42.678;23.244;2023-04-01T01:15:44;24.93;;;12.30;;
9276;SDS011;4676;42.678;23.244;2023-04-01T01:18:16;17.43;;;11.50;;
9276;SDS011;4676;42.678;23.244;2023-04-01T01:20:56;19.97;;;11.17;;
9276;SDS011;4676;42.678;23.244;2023-04-01T01:26:47;9.17;;;7.00;;
9276;SDS011;4676;42.678;23.244;2023-04-01T01:29:27;15.97;;;6.70;;
9276;SDS011;4676;42.678;23.244;2023-04-01T01:32:07;7.30;;;6.33;;
9276;SDS011;4676;42.678;23.244;2023-04-01T01:34:51;11.30;;;6.63;;
9276;SDS011;4676;42.678;23.244;2023-04-01T01:37:25;12.57;;;6.63;;
9276;SDS011;4676;42.678;23.244;2023-04-01T01:39:56;9.47;;;6.17;;
9276;SDS011;4676;42.678;23.244;2023-04-01T01:42:26;9.97;;;5.53;;
9276;SDS011;4676;42.678;23.244;2023-04-01T01:44:57;8.60;;;6.00;;
9276;SDS011;4676;42.678;23.244;2023-04-01T01:47:26;8.17;;;6.70;;
9276;SDS011;4676;42.678;23.244;2023-04-01T01:49:55;11.70;;;6.43;;
9276;SDS011;4676;42.678;23.244;2023-04-01T01:52:23;8.30;;;5.93;;
9276;SDS011;4676;42.678;23.244;2023-04-01T01:54:54;7.63;;;5.83;;
9276;SDS011;4676;42.678;23.244;2023-04-01T01:57:23;7.83;;;5.30;;
9276;SDS011;4676;42.678;23.244;2023-04-01T01:59:52;10.97;;;5.13;;
9276;SDS011;4676;42.678;23.244;2023-04-01T02:02:23;7.97;;;5.60;;
9276;SDS011;4676;42.678;23.244;2023-04-01T02:04:52;8.57;;;4.83;;
9276;SDS011;4676;42.678;23.244;2023-04-01T02:07:20;5.27;;;4.60;;
9276;SDS011;4676;42.678;23.244;2023-04-01T02:09:52;12.03;;;4.83;;
9276;SDS011;4676;42.678;23.244;2023-04-01T02:12:19;6.37;;;4.83;;
9276;SDS011;4676;42.678;23.244;2023-04-01T02:14:49;7.27;;;4.10;;
9276;SDS011;4676;42.678;23.244;2023-04-01T02:17:20;5.20;;;4.70;;
9276;SDS011;4676;42.678;23.244;2023-04-01T02:19:49;10.67;;;4.20;;
9276;SDS011;4676;42.678;23.244;2023-04-01T02:22:20;4.87;;;4.47;;
9276;SDS011;4676;42.678;23.244;2023-04-01T02:24:52;5.90;;;4.40;;
9276;SDS011;4676;42.678;23.244;2023-04-01T02:27:23;4.93;;;4.43;;
9276;SDS011;4676;42.678;23.244;2023-04-01T02:29:50;6.03;;;4.80;;
9276;SDS011;4676;42.678;23.244;2023-04-01T02:32:17;7.10;;;5.07;;
9276;SDS011;4676;42.678;23.244;2023-04-01T02:34:46;9.93;;;4.80;;
9276;SDS011;4676;42.678;23.244;2023-04-01T02:37:13;7.43;;;4.40;;
9276;SDS011;4676;42.678;23.244;2023-04-01T02:39:41;6.60;;;4.00;;
9276;SDS011;4676;42.678;23.244;2023-04-01T02:42:10;8.30;;;3.77;;
9276;SDS011;4676;42.678;23.244;2023-04-01T02:44:36;4.33;;;3.63;;
9276;SDS011;4676;42.678;23.244;2023-04-01T02:47:03;5.33;;;4.23;;
9276;SDS011;4676;42.678;23.244;2023-04-01T02:49:30;6.23;;;4.53;;
9276;SDS011;4676;42.678;23.244;2023-04-01T02:51:56;5.30;;;3.50;;
9276;SDS011;4676;42.678;23.244;2023-04-01T02:54:23;7.53;;;2.97;;
9276;SDS011;4676;42.678;23.244;2023-04-01T02:56:50;5.07;;;3.80;;
9276;SDS011;4676;42.678;23.244;2023-04-01T02:59:18;5.50;;;3.73;;
9276;SDS011;4676;42.678;23.244;2023-04-01T03:01:44;4.00;;;3.00;;
9276;SDS011;4676;42.678;23.244;2023-04-01T03:04:11;5.83;;;3.47;;
9276;SDS011;4676;42.678;23.244;2023-04-01T03:06:38;4.67;;;1.77;;
9276;SDS011;4676;42.678;23.244;2023-04-01T03:09:05;1.60;;;1.50;;
9276;SDS011;4676;42.678;23.244;2023-04-01T03:11:31;1.37;;;1.10;;
9276;SDS011;4676;42.678;23.244;2023-04-01T03:13:58;5.40;;;1.70;;
9276;SDS011;4676;42.678;23.244;2023-04-01T03:16:26;4.90;;;1.50;;
9276;SDS011;4676;42.678;23.244;2023-04-01T03:18:53;1.40;;;1.30;;
9276;SDS011;4676;42.678;23.244;2023-04-01T03:21:22;3.77;;;1.50;;
9276;SDS011;4676;42.678;23.244;2023-04-01T03:23:50;2.67;;;1.30;;
9276;SDS011;4676;42.678;23.244;2023-04-01T03:26:17;3.20;;;1.43;;
9276;SDS011;4676;42.678;23.244;2023-04-01T03:28:44;5.40;;;1.67;;
9276;SDS011;4676;42.678;23.244;2023-04-01T03:31:11;1.43;;;1.20;;
9276;SDS011;4676;42.678;23.244;2023-04-01T03:33:39;4.03;;;1.40;;
9276;SDS011;4676;42.678;23.244;2023-04-01T03:36:06;1.27;;;1.17;;
9276;SDS011;4676;42.678;23.244;2023-04-01T03:38:33;2.00;;;1.60;;
9276;SDS011;4676;42.678;23.244;2023-04-01T03:41:01;2.37;;;1.43;;
9276;SDS011;4676;42.678;23.244;2023-04-01T03:43:28;1.87;;;1.40;;
9276;SDS011;4676;42.678;23.244;2023-04-01T03:45:54;2.80;;;1.60;;
9276;SDS011;4676;42.678;23.244;2023-04-01T03:48:22;2.50;;;1.37;;
9276;SDS011;4676;42.678;23.244;2023-04-01T03:50:51;5.20;;;1.63;;
9276;SDS011;4676;42.678;23.244;2023-04-01T03:53:18;2.30;;;1.10;;
9276;SDS011;4676;42.678;23.244;2023-04-01T03:55:45;4.50;;;1.20;;
9276;SDS011;4676;42.678;23.244;2023-04-01T03:58:11;3.00;;;1.87;;
9276;SDS011;4676;42.678;23.244;2023-04-01T04:00:38;5.03;;;2.00;;
9276;SDS011;4676;42.678;23.244;2023-04-01T04:03:05;2.43;;;1.60;;
9276;SDS011;4676;42.678;23.244;2023-04-01T04:05:32;3.03;;;1.90;;
9276;SDS011;4676;42.678;23.244;2023-04-01T04:08:01;2.83;;;2.20;;
9276;SDS011;4676;42.678;23.244;2023-04-01T04:10:28;5.53;;;3.10;;
9276;SDS011;4676;42.678;23.244;2023-04-01T04:12:55;4.53;;;3.43;;
9276;SDS011;4676;42.678;23.244;2023-04-01T04:15:22;5.47;;;3.90;;
9276;SDS011;4676;42.678;23.244;2023-04-01T04:17:48;8.53;;;5.60;;
9276;SDS011;4676;42.678;23.244;2023-04-01T04:20:15;5.00;;;4.57;;
9276;SDS011;4676;42.678;23.244;2023-04-01T04:22:42;14.33;;;10.07;;
9276;SDS011;4676;42.678;23.244;2023-04-01T04:25:10;14.87;;;9.87;;
9276;SDS011;4676;42.678;23.244;2023-04-01T04:27:37;14.57;;;8.57;;
9276;SDS011;4676;42.678;23.244;2023-04-01T04:30:05;13.23;;;6.97;;
9276;SDS011;4676;42.678;23.244;2023-04-01T04:32:32;7.87;;;5.20;;
9276;SDS011;4676;42.678;23.244;2023-04-01T04:34:59;5.93;;;5.33;;
9276;SDS011;4676;42.678;23.244;2023-04-01T04:37:26;10.43;;;5.37;;
9276;SDS011;4676;42.678;23.244;2023-04-01T04:39:53;12.47;;;6.27;;
9276;SDS011;4676;42.678;23.244;2023-04-01T04:42:21;7.47;;;5.07;;
9276;SDS011;4676;42.678;23.244;2023-04-01T04:44:48;7.57;;;5.47;;
9276;SDS011;4676;42.678;23.244;2023-04-01T04:47:14;7.60;;;6.37;;
9276;SDS011;4676;42.678;23.244;2023-04-01T04:49:41;7.73;;;6.47;;
9276;SDS011;4676;42.678;23.244;2023-04-01T04:52:08;11.37;;;6.93;;
9276;SDS011;4676;42.678;23.244;2023-04-01T04:54:34;9.40;;;6.30;;
9276;SDS011;4676;42.678;23.244;2023-04-01T04:57:01;18.17;;;7.83;;
9276;SDS011;4676;42.678;23.244;2023-04-01T05:01:57;13.27;;;7.80;;
9276;SDS011;4676;42.678;23.244;2023-04-01T05:04:24;13.33;;;8.87;;
9276;SDS011;4676;42.678;23.244;2023-04-01T05:06:51;12.30;;;7.87;;
9276;SDS011;4676;42.678;23.244;2023-04-01T05:09:17;11.10;;;8.37;;
9276;SDS011;4676;42.678;23.244;2023-04-01T05:11:44;16.27;;;8.23;;
9276;SDS011;4676;42.678;23.244;2023-04-01T05:14:14;9.77;;;7.67;;
9276;SDS011;4676;42.678;23.244;2023-04-01T05:16:41;9.57;;;7.80;;
9276;SDS011;4676;42.678;23.244;2023-04-01T05:19:10;13.27;;;8.70;;
9276;SDS011;4676;42.678;23.244;2023-04-01T05:21:36;19.20;;;11.43;;
9276;SDS011;4676;42.678;23.244;2023-04-01T05:24:03;16.67;;;11.00;;
9276;SDS011;4676;42.678;23.244;2023-04-01T05:26:34;10.77;;;7.57;;
9276;SDS011;4676;42.678;23.244;2023-04-01T05:29:01;8.00;;;6.03;;
9276;SDS011;4676;42.678;23.244;2023-04-01T05:31:28;13.27;;;8.50;;
9276;SDS011;4676;42.678;23.244;2023-04-01T05:33:55;10.57;;;7.90;;
9276;SDS011;4676;42.678;23.244;2023-04-01T05:36:23;12.13;;;7.63;;
9276;SDS011;4676;42.678;23.244;2023-04-01T05:38:50;13.27;;;7.50;;
9276;SDS011;4676;42.678;23.244;2023-04-01T05:41:17;13.67;;;7.57;;
9276;SDS011;4676;42.678;23.244;2023-04-01T05:43:43;9.53;;;6.60;;
9276;SDS011;4676;42.678;23.244;2023-04-01T05:46:10;12.67;;;6.30;;
9276;SDS011;4676;42.678;23.244;2023-04-01T05:48:37;6.47;;;4.87;;
9276;SDS011;4676;42.678;23.244;2023-04-01T05:51:04;7.77;;;5.60;;
9276;SDS011;4676;42.678;23.244;2023-04-01T05:53:32;10.40;;;5.10;;
9276;SDS011;4676;42.678;23.244;2023-04-01T05:56:01;5.93;;;4.57;;
9276;SDS011;4676;42.678;23.244;2023-04-01T05:58:29;8.17;;;5.00;;
9276;SDS011;4676;42.678;23.244;2023-04-01T06:00:59;12.70;;;5.57;;
9276;SDS011;4676;42.678;23.244;2023-04-01T06:03:27;7.73;;;5.93;;
9276;SDS011;4676;42.678;23.244;2023-04-01T06:05:54;8.03;;;6.03;;
9276;SDS011;4676;42.678;23.244;2023-04-01T06:08:21;10.77;;;5.87;;
9276;SDS011;4676;42.678;23.244;2023-04-01T06:10:51;5.27;;;4.43;;
9276;SDS011;4676;42.678;23.244;2023-04-01T06:13:26;6.67;;;4.37;;
9276;SDS011;4676;42.678;23.244;2023-04-01T06:16:04;6.47;;;5.47;;
9276;SDS011;4676;42.678;23.244;2023-04-01T06:18:49;11.43;;;5.47;;
9276;SDS011;4676;42.678;23.244;2023-04-01T06:21:37;11.90;;;5.33;;
9276;SDS011;4676;42.678;23.244;2023-04-01T06:24:31;6.47;;;5.90;;
9276;SDS011;4676;42.678;23.244;2023-04-01T06:27:13;6.10;;;5.23;;
9276;SDS011;4676;42.678;23.244;2023-04-01T06:29:51;6.57;;;6.07;;
9276;SDS011;4676;42.678;23.244;2023-04-01T06:32:47;5.93;;;3.87;;
9276;SDS011;4676;42.678;23.244;2023-04-01T06:35:41;5.20;;;4.03;;
9276;SDS011;4676;42.678;23.244;2023-04-01T06:38:18;10.90;;;4.33;;
9276;SDS011;4676;42.678;23.244;2023-04-01T06:43:52;6.00;;;3.63;;
9276;SDS011;4676;42.678;23.244;2023-04-01T06:46:27;3.70;;;3.40;;
9276;SDS011;4676;42.678;23.244;2023-04-01T06:49:15;4.17;;;3.90;;
9276;SDS011;4676;42.678;23.244;2023-04-01T06:51:59;9.27;;;3.73;;
9276;SDS011;4676;42.678;23.244;2023-04-01T06:54:33;6.67;;;3.63;;
9276;SDS011;4676;42.678;23.244;2023-04-01T06:57:05;8.70;;;4.83;;
9276;SDS011;4676;42.678;23.244;2023-04-01T06:59:47;11.37;;;4.03;;
9276;SDS011;4676;42.678;23.244;2023-04-01T07:02:18;6.40;;;3.63;;
9276;SDS011;4676;42.678;23.244;2023-04-01T07:04:51;6.13;;;4.17;;
9276;SDS011;4676;42.678;23.244;2023-04-01T07:07:21;7.43;;;4.33;;
9276;SDS011;4676;42.678;23.244;2023-04-01T07:09:55;13.33;;;4.33;;
9276;SDS011;4676;42.678;23.244;2023-04-01T07:12:29;7.17;;;4.70;;
9276;SDS011;4676;42.678;23.244;2023-04-01T07:15:05;11.57;;;5.23;;
9276;SDS011;4676;42.678;23.244;2023-04-01T07:17:42;11.57;;;5.67;;
9276;SDS011;4676;42.678;23.244;2023-04-01T07:20:12;11.77;;;6.77;;
9276;SDS011;4676;42.678;23.244;2023-04-01T07:22:42;7.73;;;4.73;;
9276;SDS011;4676;42.678;23.244;2023-04-01T07:25:12;4.00;;;3.73;;
9276;SDS011;4676;42.678;23.244;2023-04-01T07:27:40;7.23;;;4.20;;
9276;SDS011;4676;42.678;23.244;2023-04-01T07:30:13;5.13;;;4.20;;
9276;SDS011;4676;42.678;23.244;2023-04-01T07:32:42;9.00;;;4.93;;
9276;SDS011;4676;42.678;23.244;2023-04-01T07:35:15;10.40;;;5.87;;
9276;SDS011;4676;42.678;23.244;2023-04-01T07:37:52;6.80;;;4.77;;
9276;SDS011;4676;42.678;23.244;2023-04-01T07:40:34;4.83;;;4.43;;
9276;SDS011;4676;42.678;23.244;2023-04-01T07:46:06;68.00;;;22.10;;
9276;SDS011;4676;42.678;23.244;2023-04-01T07:48:45;7.67;;;5.63;;
9276;SDS011;4676;42.678;23.244;2023-04-01T07:51:17;49.67;;;14.03;;
9276;SDS011;4676;42.678;23.244;2023-04-01T07:53:51;25.87;;;9.97;;
9276;SDS011;4676;42.678;23.244;2023-04-01T07:56:28;31.23;;;10.47;;
9276;SDS011;4676;42.678;23.244;2023-04-01T07:59:01;13.37;;;5.43;;
9276;SDS011;4676;42.678;23.244;2023-04-01T08:01:39;10.53;;;5.00;;
9276;SDS011;4676;42.678;23.244;2023-04-01T08:04:21;9.10;;;4.60;;
9276;SDS011;4676;42.678;23.244;2023-04-01T08:06:57;6.23;;;4.67;;
9276;SDS011;4676;42.678;23.244;2023-04-01T08:09:33;7.67;;;4.80;;
9276;SDS011;4676;42.678;23.244;2023-04-01T08:12:11;9.03;;;5.07;;
9276;SDS011;4676;42.678;23.244;2023-04-01T08:14:52;6.10;;;4.47;;
9276;SDS011;4676;42.678;23.244;2023-04-01T08:17:32;6.27;;;3.93;;
9276;SDS011;4676;42.678;23.244;2023-04-01T08:20:14;5.93;;;4.30;;
9276;SDS011;4676;42.678;23.244;2023-04-01T08:22:53;4.93;;;4.43;;
9276;SDS011;4676;42.678;23.244;2023-04-01T08:25:26;11.00;;;4.90;;
9276;SDS011;4676;42.678;23.244;2023-04-01T08:27:57;7.77;;;5.23;;
9276;SDS011;4676;42.678;23.244;2023-04-01T08:30:32;5.20;;;3.87;;
9276;SDS011;4676;42.678;23.244;2023-04-01T08:33:09;10.90;;;7.17;;
9276;SDS011;4676;42.678;23.244;2023-04-01T08:35:40;8.00;;;5.07;;
9276;SDS011;4676;42.678;23.244;2023-04-01T08:38:13;11.50;;;6.13;;
9276;SDS011;4676;42.678;23.244;2023-04-01T08:40:55;6.00;;;5.17;;
9276;SDS011;4676;42.678;23.244;2023-04-01T08:43:30;7.37;;;4.20;;
9276;SDS011;4676;42.678;23.244;2023-04-01T08:49:18;3.93;;;3.63;;
9276;SDS011;4676;42.678;23.244;2023-04-01T08:52:05;4.30;;;3.90;;
9276;SDS011;4676;42.678;23.244;2023-04-01T08:55:01;4.27;;;3.40;;
9276;SDS011;4676;42.678;23.244;2023-04-01T08:57:52;4.33;;;3.27;;
9276;SDS011;4676;42.678;23.244;2023-04-01T09:00:30;3.40;;;3.10;;
9276;SDS011;4676;42.678;23.244;2023-04-01T09:03:08;7.60;;;2.97;;
9276;SDS011;4676;42.678;23.244;2023-04-01T09:06:04;3.47;;;3.17;;
9276;SDS011;4676;42.678;23.244;2023-04-01T09:08:50;6.90;;;3.60;;
9276;SDS011;4676;42.678;23.244;2023-04-01T09:11:31;3.97;;;3.63;;
9276;SDS011;4676;42.678;23.244;2023-04-01T09:14:26;4.67;;;2.83;;
9276;SDS011;4676;42.678;23.244;2023-04-01T09:20:44;12.90;;;1.97;;
9276;SDS011;4676;42.678;23.244;2023-04-01T09:23:26;5.27;;;1.60;;
9276;SDS011;4676;42.678;23.244;2023-04-01T09:26:13;3.30;;;1.57;;
9276;SDS011;4676;42.678;23.244;2023-04-01T09:29:01;5.07;;;1.60;;
9276;SDS011;4676;42.678;23.244;2023-04-01T09:31:45;1.93;;;1.57;;
9276;SDS011;4676;42.678;23.244;2023-04-01T09:34:35;2.40;;;1.70;;
9276;SDS011;4676;42.678;23.244;2023-04-01T09:37:20;2.40;;;1.83;;
9276;SDS011;4676;42.678;23.244;2023-04-01T09:40:02;2.27;;;1.60;;
9276;SDS011;4676;42.678;23.244;2023-04-01T09:42:44;9.90;;;1.83;;
9276;SDS011;4676;42.678;23.244;2023-04-01T09:45:23;4.53;;;1.90;;
9276;SDS011;4676;42.678;23.244;2023-04-01T09:48:02;5.13;;;1.90;;
9276;SDS011;4676;42.678;23.244;2023-04-01T09:50:40;3.60;;;1.70;;
9276;SDS011;4676;42.678;23.244;2023-04-01T09:53:19;1.63;;;1.50;;
9276;SDS011;4676;42.678;23.244;2023-04-01T09:59:08;4.73;;;1.83;;
9276;SDS011;4676;42.678;23.244;2023-04-01T10:02:05;2.17;;;1.70;;
9276;SDS011;4676;42.678;23.244;2023-04-01T10:05:00;6.43;;;2.30;;
9276;SDS011;4676;42.678;23.244;2023-04-01T10:10:28;5.03;;;1.87;;
9276;SDS011;4676;42.678;23.244;2023-04-01T10:22:54;7.47;;;2.00;;
9276;SDS011;4676;42.678;23.244;2023-04-01T10:25:41;3.50;;;1.60;;
9276;SDS011;4676;42.678;23.244;2023-04-01T10:28:25;2.30;;;1.60;;
9276;SDS011;4676;42.678;23.244;2023-04-01T10:31:20;2.70;;;2.27;;
9276;SDS011;4676;42.678;23.244;2023-04-01T10:37:11;2.50;;;1.50;;
9276;SDS011;4676;42.678;23.244;2023-04-01T10:39:57;3.60;;;1.73;;
9276;SDS011;4676;42.678;23.244;2023-04-01T10:42:55;10.40;;;4.70;;
9276;SDS011;4676;42.678;23.244;2023-04-01T10:45:56;4.57;;;1.90;;
9276;SDS011;4676;42.678;23.244;2023-04-01T10:54:50;4.23;;;1.60;;
9276;SDS011;4676;42.678;23.244;2023-04-01T11:00:28;3.07;;;1.80;;
9276;SDS011;4676;42.678;23.244;2023-04-01T11:03:34;6.67;;;1.70;;
9276;SDS011;4676;42.678;23.244;2023-04-01T11:06:30;5.50;;;1.83;;
9276;SDS011;4676;42.678;23.244;2023-04-01T11:09:26;2.83;;;1.60;;
9276;SDS011;4676;42.678;23.244;2023-04-01T11:12:37;1.93;;;1.27;;
9276;SDS011;4676;42.678;23.244;2023-04-01T11:18:55;3.90;;;1.33;;
9276;SDS011;4676;42.678;23.244;2023-04-01T11:24:51;7.30;;;3.40;;
9276;SDS011;4676;42.678;23.244;2023-04-01T11:30:40;6.33;;;2.10;;
9276;SDS011;4676;42.678;23.244;2023-04-01T11:33:22;1.90;;;1.33;;
9276;SDS011;4676;42.678;23.244;2023-04-01T11:35:55;3.17;;;2.60;;
9276;SDS011;4676;42.678;23.244;2023-04-01T11:38:42;1.70;;;1.60;;
9276;SDS011;4676;42.678;23.244;2023-04-01T11:41:26;4.50;;;1.97;;
9276;SDS011;4676;42.678;23.244;2023-04-01T11:44:07;3.53;;;1.80;;
9276;SDS011;4676;42.678;23.244;2023-04-01T11:46:46;2.47;;;2.07;;
9276;SDS011;4676;42.678;23.244;2023-04-01T11:49:31;6.50;;;3.33;;
9276;SDS011;4676;42.678;23.244;2023-04-01T11:52:08;4.60;;;2.17;;
9276;SDS011;4676;42.678;23.244;2023-04-01T11:55:06;2.93;;;1.80;;
9276;SDS011;4676;42.678;23.244;2023-04-01T12:01:09;10.90;;;5.60;;
9276;SDS011;4676;42.678;23.244;2023-04-01T12:03:48;5.60;;;3.80;;
9276;SDS011;4676;42.678;23.244;2023-04-01T12:06:39;11.03;;;9.67;;
9276;SDS011;4676;42.678;23.244;2023-04-01T12:09:17;7.00;;;4.40;;
9276;SDS011;4676;42.678;23.244;2023-04-01T12:11:52;11.63;;;7.80;;
9276;SDS011;4676;42.678;23.244;2023-04-01T12:14:32;5.80;;;3.57;;
9276;SDS011;4676;42.678;23.244;2023-04-01T12:17:11;5.10;;;4.70;;
9276;SDS011;4676;42.678;23.244;2023-04-01T12:19:55;4.80;;;4.30;;
9276;SDS011;4676;42.678;23.244;2023-04-01T12:22:31;2.90;;;2.70;;
9276;SDS011;4676;42.678;23.244;2023-04-01T12:25:14;5.37;;;4.87;;
9276;SDS011;4676;42.678;23.244;2023-04-01T12:27:54;4.87;;;4.47;;
9276;SDS011;4676;42.678;23.244;2023-04-01T12:30:37;4.50;;;3.30;;
9276;SDS011;4676;42.678;23.244;2023-04-01T12:36:26;7.80;;;4.03;;
9276;SDS011;4676;42.678;23.244;2023-04-01T12:39:12;4.23;;;2.80;;
9276;SDS011;4676;42.678;23.244;2023-04-01T12:41:51;2.03;;;1.93;;
9276;SDS011;4676;42.678;23.244;2023-04-01T12:44:29;2.70;;;2.50;;
9276;SDS011;4676;42.678;23.244;2023-04-01T12:47:20;4.43;;;3.60;;
9276;SDS011;4676;42.678;23.244;2023-04-01T12:50:16;2.57;;;2.37;;
9276;SDS011;4676;42.678;23.244;2023-04-01T12:52:57;3.97;;;1.80;;
9276;SDS011;4676;42.678;23.244;2023-04-01T12:55:38;2.87;;;2.33;;
9276;SDS011;4676;42.678;23.244;2023-04-01T13:01:23;3.30;;;3.00;;
9276;SDS011;4676;42.678;23.244;2023-04-01T13:04:01;4.60;;;3.00;;
9276;SDS011;4676;42.678;23.244;2023-04-01T13:07:00;3.17;;;2.97;;
9276;SDS011;4676;42.678;23.244;2023-04-01T13:09:42;3.20;;;2.80;;
9276;SDS011;4676;42.678;23.244;2023-04-01T13:12:21;10.07;;;2.47;;
9276;SDS011;4676;42.678;23.244;2023-04-01T13:17:58;2.93;;;2.67;;
9276;SDS011;4676;42.678;23.244;2023-04-01T13:20:36;2.07;;;1.97;;
9276;SDS011;4676;42.678;23.244;2023-04-01T13:23:16;3.30;;;3.00;;
9276;SDS011;4676;42.678;23.244;2023-04-01T13:26:00;6.43;;;4.07;;
9276;SDS011;4676;42.678;23.244;2023-04-01T13:28:35;4.43;;;3.50;;
9276;SDS011;4676;42.678;23.244;2023-04-01T13:31:07;2.47;;;1.60;;
9276;SDS011;4676;42.678;23.244;2023-04-01T13:33:45;1.90;;;1.77;;
9276;SDS011;4676;42.678;23.244;2023-04-01T13:36:19;2.97;;;1.43;;
9276;SDS011;4676;42.678;23.244;2023-04-01T13:41:50;2.40;;;1.87;;
9276;SDS011;4676;42.678;23.244;2023-04-01T13:44:37;1.33;;;1.33;;
9276;SDS011;4676;42.678;23.244;2023-04-01T13:47:23;2.03;;;1.90;;
9276;SDS011;4676;42.678;23.244;2023-04-01T13:53:06;0.93;;;0.93;;
9276;SDS011;4676;42.678;23.244;2023-04-01T13:55:50;1.20;;;1.10;;
9276;SDS011;4676;42.678;23.244;2023-04-01T14:01:23;1.10;;;1.03;;
9276;SDS011;4676;42.678;23.244;2023-04-01T14:04:03;1.40;;;1.27;;
9276;SDS011;4676;42.678;23.244;2023-04-01T14:06:47;2.13;;;1.30;;
9276;SDS011;4676;42.678;23.244;2023-04-01T14:09:32;2.83;;;1.20;;
9276;SDS011;4676;42.678;23.244;2023-04-01T14:12:18;0.80;;;0.80;;
9276;SDS011;4676;42.678;23.244;2023-04-01T14:15:01;1.30;;;1.20;;
9276;SDS011;4676;42.678;23.244;2023-04-01T14:17:50;1.23;;;1.13;;
9276;SDS011;4676;42.678;23.244;2023-04-01T14:20:27;1.20;;;1.10;;
9276;SDS011;4676;42.678;23.244;2023-04-01T14:28:51;3.00;;;1.30;;
9276;SDS011;4676;42.678;23.244;2023-04-01T14:34:18;6.47;;;1.70;;
9276;SDS011;4676;42.678;23.244;2023-04-01T14:36:58;1.50;;;1.40;;
9276;SDS011;4676;42.678;23.244;2023-04-01T14:39:48;1.40;;;1.30;;
9276;SDS011;4676;42.678;23.244;2023-04-01T14:42:41;1.20;;;1.10;;
9276;SDS011;4676;42.678;23.244;2023-04-01T14:45:29;1.23;;;1.13;;
9276;SDS011;4676;42.678;23.244;2023-04-01T14:48:17;1.13;;;1.03;;
9276;SDS011;4676;42.678;23.244;2023-04-01T14:50:52;1.90;;;1.63;;
9276;SDS011;4676;42.678;23.244;2023-04-01T14:53:26;1.37;;;1.27;;
9276;SDS011;4676;42.678;23.244;2023-04-01T14:55:55;1.60;;;1.50;;
9276;SDS011;4676;42.678;23.244;2023-04-01T14:58:24;3.03;;;1.77;;
9276;SDS011;4676;42.678;23.244;2023-04-01T15:01:00;1.70;;;1.60;;
9276;SDS011;4676;42.678;23.244;2023-04-01T15:03:45;3.00;;;1.97;;
9276;SDS011;4676;42.678;23.244;2023-04-01T15:06:32;1.60;;;1.50;;
9276;SDS011;4676;42.678;23.244;2023-04-01T15:09:12;1.50;;;1.40;;
9276;SDS011;4676;42.678;23.244;2023-04-01T15:11:49;0.90;;;0.90;;
9276;SDS011;4676;42.678;23.244;2023-04-01T15:14:32;1.00;;;1.00;;
9276;SDS011;4676;42.678;23.244;2023-04-01T15:17:22;1.83;;;1.73;;
9276;SDS011;4676;42.678;23.244;2023-04-01T15:23:00;3.10;;;2.00;;
9276;SDS011;4676;42.678;23.244;2023-04-01T15:25:43;1.43;;;1.33;;
9276;SDS011;4676;42.678;23.244;2023-04-01T15:28:20;2.10;;;1.40;;
9276;SDS011;4676;42.678;23.244;2023-04-01T15:30:56;1.20;;;1.10;;
9276;SDS011;4676;42.678;23.244;2023-04-01T15:33:32;3.53;;;1.10;;
9276;SDS011;4676;42.678;23.244;2023-04-01T15:36:12;2.60;;;2.27;;
9276;SDS011;4676;42.678;23.244;2023-04-01T15:38:51;1.90;;;1.83;;
9276;SDS011;4676;42.678;23.244;2023-04-01T15:41:27;1.50;;;1.40;;
9276;SDS011;4676;42.678;23.244;2023-04-01T15:44:02;2.23;;;2.00;;
9276;SDS011;4676;42.678;23.244;2023-04-01T15:46:39;2.20;;;1.10;;
9276;SDS011;4676;42.678;23.244;2023-04-01T15:49:22;1.10;;;1.00;;
9276;SDS011;4676;42.678;23.244;2023-04-01T15:52:03;5.60;;;0.90;;
9276;SDS011;4676;42.678;23.244;2023-04-01T15:54:55;1.00;;;1.00;;
9276;SDS011;4676;42.678;23.244;2023-04-01T15:57:38;1.20;;;1.13;;
9276;SDS011;4676;42.678;23.244;2023-04-01T16:00:13;1.43;;;1.20;;
9276;SDS011;4676;42.678;23.244;2023-04-01T16:02:49;3.23;;;1.07;;
9276;SDS011;4676;42.678;23.244;2023-04-01T16:05:27;1.40;;;1.30;;
9276;SDS011;4676;42.678;23.244;2023-04-01T16:11:18;1.97;;;1.50;;
9276;SDS011;4676;42.678;23.244;2023-04-01T16:13:58;2.80;;;1.83;;
9276;SDS011;4676;42.678;23.244;2023-04-01T16:19:52;2.33;;;2.13;;
9276;SDS011;4676;42.678;23.244;2023-04-01T16:22:26;2.17;;;2.07;;
9276;SDS011;4676;42.678;23.244;2023-04-01T16:25:07;1.90;;;1.80;;
9276;SDS011;4676;42.678;23.244;2023-04-01T16:27:47;2.20;;;2.10;;
9276;SDS011;4676;42.678;23.244;2023-04-01T16:30:24;3.07;;;2.10;;
9276;SDS011;4676;42.678;23.244;2023-04-01T16:33:00;2.40;;;2.20;;
9276;SDS011;4676;42.678;23.244;2023-04-01T16:35:34;4.47;;;2.43;;
9276;SDS011;4676;42.678;23.244;2023-04-01T16:38:11;2.17;;;2.07;;
9276;SDS011;4676;42.678;23.244;2023-04-01T16:40:46;3.17;;;1.97;;
9276;SDS011;4676;42.678;23.244;2023-04-01T16:43:25;1.93;;;1.83;;
9276;SDS011;4676;42.678;23.244;2023-04-01T16:46:11;2.13;;;2.00;;
9276;SDS011;4676;42.678;23.244;2023-04-01T16:49:05;4.40;;;4.10;;
9276;SDS011;4676;42.678;23.244;2023-04-01T16:51:46;2.90;;;2.70;;
9276;SDS011;4676;42.678;23.244;2023-04-01T16:54:26;2.80;;;2.60;;
9276;SDS011;4676;42.678;23.244;2023-04-01T16:57:03;2.37;;;2.27;;
9276;SDS011;4676;42.678;23.244;2023-04-01T16:59:44;2.93;;;2.53;;
9276;SDS011;4676;42.678;23.244;2023-04-01T17:02:14;2.93;;;2.73;;
9276;SDS011;4676;42.678;23.244;2023-04-01T17:04:44;2.07;;;1.97;;
9276;SDS011;4676;42.678;23.244;2023-04-01T17:07:23;2.87;;;2.67;;
9276;SDS011;4676;42.678;23.244;2023-04-01T17:10:15;2.70;;;1.90;;
9276;SDS011;4676;42.678;23.244;2023-04-01T17:13:09;2.60;;;2.40;;
9276;SDS011;4676;42.678;23.244;2023-04-01T17:15:57;2.30;;;2.20;;
9276;SDS011;4676;42.678;23.244;2023-04-01T17:18:37;3.50;;;3.20;;
9276;SDS011;4676;42.678;23.244;2023-04-01T17:21:16;2.83;;;2.57;;
9276;SDS011;4676;42.678;23.244;2023-04-01T17:23:52;4.53;;;4.13;;
9276;SDS011;4676;42.678;23.244;2023-04-01T17:26:26;3.17;;;2.87;;